createdAt,value
2022-12-03T00:00:46.129Z,1015.78
2022-12-03T00:01:46.097Z,1015.81
2022-12-03T00:02:46.183Z,1015.79
2022-12-03T00:03:46.206Z,1015.82
2022-12-03T00:04:46.008Z,1015.78
2022-12-03T00:05:49.055Z,1015.75
2022-12-03T00:06:45.946Z,1015.74
2022-12-03T00:07:45.995Z,1015.75
2022-12-03T00:08:45.882Z,1015.74
2022-12-03T00:09:45.854Z,1015.73
2022-12-03T00:10:45.828Z,1015.72
2022-12-03T00:11:45.798Z,1015.74
2022-12-03T00:12:45.762Z,1015.73
2022-12-03T00:13:45.734Z,1015.76
2022-12-03T00:14:45.704Z,1015.77
2022-12-03T00:15:45.727Z,1015.75
2022-12-03T00:16:45.642Z,1015.75
2022-12-03T00:17:45.615Z,1015.75
2022-12-03T00:18:45.585Z,1015.74
2022-12-03T00:19:45.552Z,1015.71
2022-12-03T00:20:45.521Z,1015.70
2022-12-03T00:21:45.493Z,1015.66
2022-12-03T00:22:45.461Z,1015.68
2022-12-03T00:23:45.428Z,1015.67
2022-12-03T00:24:45.401Z,1015.60
2022-12-03T00:25:45.377Z,1015.65
2022-12-03T00:26:45.339Z,1015.64
2022-12-03T00:27:45.310Z,1015.61
2022-12-03T00:28:45.277Z,1015.59
2022-12-03T00:29:45.249Z,1015.58
2022-12-03T00:30:45.433Z,1015.53
2022-12-03T00:31:45.314Z,1015.54
2022-12-03T00:32:45.157Z,1015.56
2022-12-03T00:33:45.132Z,1015.55
2022-12-03T00:34:45.096Z,1015.53
2022-12-03T00:35:45.067Z,1015.55
2022-12-03T00:36:45.034Z,1015.60
2022-12-03T00:37:45.007Z,1015.54
2022-12-03T00:38:44.977Z,1015.58
2022-12-03T00:39:44.949Z,1015.55
2022-12-03T00:40:44.916Z,1015.54
2022-12-03T00:41:44.886Z,1015.51
2022-12-03T00:42:44.853Z,1015.52
2022-12-03T00:43:44.821Z,1015.53
2022-12-03T00:44:44.793Z,1015.55
2022-12-03T00:45:44.767Z,1015.52
2022-12-03T00:46:44.946Z,1015.51
2022-12-03T00:47:44.721Z,1015.55
2022-12-03T00:48:44.672Z,1015.51
2022-12-03T00:49:44.639Z,1015.55
2022-12-03T00:50:44.614Z,1015.58
2022-12-03T00:51:44.579Z,1015.54
2022-12-03T00:52:44.551Z,1015.60
2022-12-03T00:53:44.519Z,1015.59
2022-12-03T00:54:44.490Z,1015.54
2022-12-03T00:55:44.457Z,1015.53
2022-12-03T00:56:44.430Z,1015.56
2022-12-03T00:57:44.401Z,1015.55
2022-12-03T00:58:44.371Z,1015.52
2022-12-03T00:59:44.342Z,1015.54
2022-12-03T01:00:44.308Z,1015.53
2022-12-03T01:01:44.347Z,1015.51
2022-12-03T01:02:44.248Z,1015.52
2022-12-03T01:03:44.243Z,1015.56
2022-12-03T01:04:44.247Z,1015.52
2022-12-03T01:05:44.155Z,1015.60
2022-12-03T01:06:44.128Z,1015.58
2022-12-03T01:07:44.163Z,1015.59
2022-12-03T01:08:44.068Z,1015.62
2022-12-03T01:09:44.033Z,1015.60
2022-12-03T01:10:44.004Z,1015.61
2022-12-03T01:11:43.974Z,1015.61
2022-12-03T01:12:43.942Z,1015.62
2022-12-03T01:13:43.913Z,1015.67
2022-12-03T01:14:43.885Z,1015.66
2022-12-03T01:15:43.904Z,1015.61
2022-12-03T01:16:43.824Z,1015.68
2022-12-03T01:17:43.792Z,1015.65
2022-12-03T01:18:43.764Z,1015.62
2022-12-03T01:19:48.249Z,1015.68
2022-12-03T01:20:43.701Z,1015.66
2022-12-03T01:21:43.671Z,1015.68
2022-12-03T01:22:43.643Z,1015.69
2022-12-03T01:23:43.609Z,1015.69
2022-12-03T01:24:43.581Z,1015.67
2022-12-03T01:25:43.549Z,1015.69
2022-12-03T01:26:43.523Z,1015.68
2022-12-03T01:27:43.487Z,1015.72
2022-12-03T01:28:43.458Z,1015.65
2022-12-03T01:29:43.426Z,1015.63
2022-12-03T01:30:43.402Z,1015.66
2022-12-03T01:31:43.388Z,1015.63
2022-12-03T01:32:43.336Z,1015.62
2022-12-03T01:33:43.305Z,1015.64
2022-12-03T01:34:43.279Z,1015.64
2022-12-03T01:35:43.262Z,1015.67
2022-12-03T01:36:43.216Z,1015.63
2022-12-03T01:37:43.185Z,1015.64
2022-12-03T01:38:43.161Z,1015.58
2022-12-03T01:39:43.123Z,1015.62
2022-12-03T01:40:43.095Z,1015.60
2022-12-03T01:41:43.082Z,1015.60
2022-12-03T01:42:43.036Z,1015.63
2022-12-03T01:43:43.002Z,1015.64
2022-12-03T01:44:42.972Z,1015.63
2022-12-03T01:45:42.945Z,1015.65
2022-12-03T01:46:42.961Z,1015.62
2022-12-03T01:47:42.880Z,1015.63
2022-12-03T01:48:42.851Z,1015.61
2022-12-03T01:49:42.821Z,1015.60
2022-12-03T01:50:42.793Z,1015.58
2022-12-03T01:51:42.779Z,1015.62
2022-12-03T01:52:42.732Z,1015.58
2022-12-03T01:53:42.699Z,1015.58
2022-12-03T01:54:42.673Z,1015.57
2022-12-03T01:55:45.597Z,1015.61
2022-12-03T01:56:42.609Z,1015.60
2022-12-03T01:57:42.576Z,1015.58
2022-12-03T01:58:42.549Z,1015.55
2022-12-03T01:59:42.517Z,1015.64
2022-12-03T02:00:42.487Z,1015.59
2022-12-03T02:01:42.512Z,1015.61
2022-12-03T02:02:42.429Z,1015.57
2022-12-03T02:03:42.443Z,1015.58
2022-12-03T02:04:42.366Z,1015.64
2022-12-03T02:05:42.335Z,1015.61
2022-12-03T02:06:42.307Z,1015.62
2022-12-03T02:07:42.368Z,1015.61
2022-12-03T02:08:42.246Z,1015.55
2022-12-03T02:09:42.228Z,1015.56
2022-12-03T02:10:42.184Z,1015.62
2022-12-03T02:11:42.153Z,1015.60
2022-12-03T02:12:42.120Z,1015.62
2022-12-03T02:13:42.180Z,1015.58
2022-12-03T02:14:42.061Z,1015.59
2022-12-03T02:15:42.069Z,1015.55
2022-12-03T02:16:42.126Z,1015.59
2022-12-03T02:17:41.968Z,1015.61
2022-12-03T02:18:41.939Z,1015.59
2022-12-03T02:19:41.908Z,1015.57
2022-12-03T02:20:41.878Z,1015.59
2022-12-03T02:21:41.849Z,1015.56
2022-12-03T02:22:41.819Z,1015.57
2022-12-03T02:23:41.811Z,1015.61
2022-12-03T02:24:41.762Z,1015.57
2022-12-03T02:25:41.728Z,1015.60
2022-12-03T02:26:41.698Z,1015.58
2022-12-03T02:27:41.672Z,1015.61
2022-12-03T02:28:41.634Z,1015.60
2022-12-03T02:29:41.605Z,1015.59
2022-12-03T02:30:41.575Z,1015.62
2022-12-03T02:31:41.596Z,1015.54
2022-12-03T02:32:41.515Z,1015.57
2022-12-03T02:33:41.482Z,1015.61
2022-12-03T02:34:41.455Z,1015.58
2022-12-03T02:35:41.421Z,1015.59
2022-12-03T02:36:41.394Z,1015.57
2022-12-03T02:37:41.359Z,1015.53
2022-12-03T02:38:41.332Z,1015.54
2022-12-03T02:39:41.317Z,1015.54
2022-12-03T02:40:41.268Z,1015.55
2022-12-03T02:41:41.238Z,1015.56
2022-12-03T02:42:41.209Z,1015.55
2022-12-03T02:43:41.181Z,1015.51
2022-12-03T02:44:41.150Z,1015.56
2022-12-03T02:45:41.114Z,1015.55
2022-12-03T02:46:41.178Z,1015.56
2022-12-03T02:47:41.055Z,1015.54
2022-12-03T02:48:41.031Z,1015.53
2022-12-03T02:49:40.997Z,1015.55
2022-12-03T02:50:40.968Z,1015.52
2022-12-03T02:51:40.933Z,1015.56
2022-12-03T02:52:40.905Z,1015.54
2022-12-03T02:53:40.870Z,1015.55
2022-12-03T02:54:40.844Z,1015.51
2022-12-03T02:55:40.829Z,1015.52
2022-12-03T02:56:40.783Z,1015.51
2022-12-03T02:57:40.750Z,1015.53
2022-12-03T02:58:40.730Z,1015.52
2022-12-03T02:59:40.690Z,1015.51
2022-12-03T03:00:40.755Z,1015.48
2022-12-03T03:01:40.802Z,1015.47
2022-12-03T03:02:40.718Z,1015.50
2022-12-03T03:03:40.570Z,1015.48
2022-12-03T03:04:40.540Z,1015.39
2022-12-03T03:05:40.509Z,1015.43
2022-12-03T03:06:40.478Z,1015.40
2022-12-03T03:07:40.532Z,1015.41
2022-12-03T03:08:40.415Z,1015.38
2022-12-03T03:09:40.386Z,1015.40
2022-12-03T03:10:40.358Z,1015.45
2022-12-03T03:11:40.343Z,1015.40
2022-12-03T03:12:40.299Z,1015.43
2022-12-03T03:13:40.266Z,1015.36
2022-12-03T03:14:40.237Z,1015.40
2022-12-03T03:15:40.204Z,1015.40
2022-12-03T03:16:40.310Z,1015.39
2022-12-03T03:17:40.143Z,1015.38
2022-12-03T03:18:40.115Z,1015.37
2022-12-03T03:19:40.081Z,1015.40
2022-12-03T03:20:40.063Z,1015.38
2022-12-03T03:21:40.028Z,1015.38
2022-12-03T03:22:40.002Z,1015.37
2022-12-03T03:23:39.962Z,1015.41
2022-12-03T03:24:39.930Z,1015.40
2022-12-03T03:25:39.899Z,1015.39
2022-12-03T03:26:39.872Z,1015.37
2022-12-03T03:27:39.854Z,1015.36
2022-12-03T03:28:39.809Z,1015.33
2022-12-03T03:29:39.778Z,1015.37
2022-12-03T03:30:39.750Z,1015.36
2022-12-03T03:31:39.771Z,1015.35
2022-12-03T03:32:39.686Z,1015.35
2022-12-03T03:33:39.657Z,1015.33
2022-12-03T03:34:39.628Z,1015.34
2022-12-03T03:35:39.597Z,1015.34
2022-12-03T03:36:39.565Z,1015.35
2022-12-03T03:37:39.534Z,1015.33
2022-12-03T03:38:39.505Z,1015.33
2022-12-03T03:39:39.472Z,1015.35
2022-12-03T03:40:39.446Z,1015.33
2022-12-03T03:41:39.415Z,1015.27
2022-12-03T03:42:39.382Z,1015.26
2022-12-03T03:43:39.370Z,1015.26
2022-12-03T03:44:39.321Z,1015.23
2022-12-03T03:45:39.341Z,1015.19
2022-12-03T03:46:39.263Z,1015.19
2022-12-03T03:47:39.231Z,1015.16
2022-12-03T03:48:39.203Z,1015.13
2022-12-03T03:49:39.170Z,1015.16
2022-12-03T03:50:39.143Z,1015.17
2022-12-03T03:51:39.108Z,1015.12
2022-12-03T03:52:39.079Z,1015.14
2022-12-03T03:53:39.048Z,1015.14
2022-12-03T03:54:39.022Z,1015.17
2022-12-03T03:55:38.987Z,1015.13
2022-12-03T03:56:38.958Z,1015.09
2022-12-03T03:57:38.928Z,1015.10
2022-12-03T03:58:38.911Z,1015.07
2022-12-03T03:59:38.887Z,1015.09
2022-12-03T04:00:38.845Z,1015.08
2022-12-03T04:01:38.900Z,1015.07
2022-12-03T04:02:38.775Z,1015.08
2022-12-03T04:03:38.813Z,1015.10
2022-12-03T04:04:38.805Z,1015.11
2022-12-03T04:05:38.681Z,1015.06
2022-12-03T04:06:38.654Z,1015.04
2022-12-03T04:07:38.669Z,1015.04
2022-12-03T04:08:38.591Z,1015.05
2022-12-03T04:09:38.560Z,1015.06
2022-12-03T04:10:38.535Z,1015.05
2022-12-03T04:11:38.500Z,1015.03
2022-12-03T04:12:38.470Z,1015.02
2022-12-03T04:13:38.441Z,1015.03
2022-12-03T04:14:38.410Z,1015.04
2022-12-03T04:15:38.399Z,1015.06
2022-12-03T04:16:38.400Z,1015.03
2022-12-03T04:17:38.320Z,1015.08
2022-12-03T04:18:38.291Z,1015.03
2022-12-03T04:19:38.258Z,1015.03
2022-12-03T04:20:38.227Z,1015.05
2022-12-03T04:21:38.196Z,1015.01
2022-12-03T04:22:38.169Z,1015.05
2022-12-03T04:23:38.135Z,1015.05
2022-12-03T04:24:38.105Z,1015.03
2022-12-03T04:25:38.077Z,1015.06
2022-12-03T04:26:38.047Z,1015.05
2022-12-03T04:27:38.015Z,1015.08
2022-12-03T04:28:37.987Z,1015.07
2022-12-03T04:29:37.953Z,1015.08
2022-12-03T04:30:37.960Z,1015.10
2022-12-03T04:31:37.908Z,1015.05
2022-12-03T04:32:37.862Z,1015.11
2022-12-03T04:33:37.831Z,1015.06
2022-12-03T04:34:37.802Z,1015.02
2022-12-03T04:35:37.819Z,1015.05
2022-12-03T04:36:37.742Z,1015.07
2022-12-03T04:37:37.708Z,1015.00
2022-12-03T04:38:37.683Z,1014.98
2022-12-03T04:39:37.652Z,1015.03
2022-12-03T04:40:37.621Z,1015.03
2022-12-03T04:41:37.591Z,1015.01
2022-12-03T04:42:37.562Z,1015.07
2022-12-03T04:43:37.529Z,1015.06
2022-12-03T04:44:37.504Z,1015.00
2022-12-03T04:45:37.514Z,1015.01
2022-12-03T04:46:37.438Z,1015.02
2022-12-03T04:47:40.007Z,1015.04
2022-12-03T04:48:37.378Z,1015.00
2022-12-03T04:49:37.344Z,1015.00
2022-12-03T04:50:37.333Z,1015.02
2022-12-03T04:51:37.284Z,1015.00
2022-12-03T04:52:37.255Z,1015.03
2022-12-03T04:53:40.699Z,1015.02
2022-12-03T04:54:37.200Z,1015.05
2022-12-03T04:55:37.162Z,1015.11
2022-12-03T04:56:37.131Z,1015.08
2022-12-03T04:57:37.101Z,1015.08
2022-12-03T04:58:37.072Z,1015.05
2022-12-03T04:59:37.043Z,1015.09
2022-12-03T05:00:37.010Z,1015.07
2022-12-03T05:01:37.122Z,1015.08
2022-12-03T05:02:37.051Z,1015.05
2022-12-03T05:03:36.935Z,1015.13
2022-12-03T05:04:36.889Z,1015.09
2022-12-03T05:05:36.856Z,1015.12
2022-12-03T05:06:36.833Z,1015.12
2022-12-03T05:07:36.918Z,1015.11
2022-12-03T05:08:36.764Z,1015.15
2022-12-03T05:09:36.753Z,1015.17
2022-12-03T05:10:36.706Z,1015.18
2022-12-03T05:11:36.673Z,1015.10
2022-12-03T05:12:36.644Z,1015.14
2022-12-03T05:13:36.613Z,1015.16
2022-12-03T05:14:36.580Z,1015.10
2022-12-03T05:15:36.552Z,1015.11
2022-12-03T05:16:36.628Z,1015.14
2022-12-03T05:17:36.493Z,1015.13
2022-12-03T05:18:36.455Z,1015.10
2022-12-03T05:19:36.447Z,1015.14
2022-12-03T05:20:36.396Z,1015.14
2022-12-03T05:21:36.367Z,1015.12
2022-12-03T05:22:36.334Z,1015.10
2022-12-03T05:23:36.306Z,1015.10
2022-12-03T05:24:36.276Z,1015.05
2022-12-03T05:25:36.245Z,1015.07
2022-12-03T05:26:36.215Z,1015.03
2022-12-03T05:27:36.183Z,1015.03
2022-12-03T05:28:36.156Z,1015.04
2022-12-03T05:29:36.123Z,1015.10
2022-12-03T05:30:36.133Z,1015.03
2022-12-03T05:31:36.063Z,1015.03
2022-12-03T05:32:36.031Z,1015.01
2022-12-03T05:33:40.835Z,1015.05
2022-12-03T05:34:35.969Z,1015.01
2022-12-03T05:35:35.965Z,1015.00
2022-12-03T05:36:35.907Z,1014.95
2022-12-03T05:37:35.883Z,1015.00
2022-12-03T05:38:35.846Z,1014.96
2022-12-03T05:39:35.816Z,1014.97
2022-12-03T05:40:35.791Z,1015.01
2022-12-03T05:41:35.759Z,1015.03
2022-12-03T05:42:35.724Z,1014.99
2022-12-03T05:43:35.696Z,1015.03
2022-12-03T05:44:35.662Z,1014.97
2022-12-03T05:45:35.635Z,1014.99
2022-12-03T05:46:35.682Z,1014.96
2022-12-03T05:47:35.579Z,1014.93
2022-12-03T05:48:35.538Z,1014.98
2022-12-03T05:49:35.511Z,1014.97
2022-12-03T05:50:35.478Z,1014.94
2022-12-03T05:51:35.466Z,1014.95
2022-12-03T05:52:35.418Z,1014.97
2022-12-03T05:53:35.387Z,1014.89
2022-12-03T05:54:35.358Z,1014.93
2022-12-03T05:55:35.327Z,1014.94
2022-12-03T05:56:35.295Z,1014.89
2022-12-03T05:57:35.266Z,1014.89
2022-12-03T05:58:35.232Z,1014.88
2022-12-03T05:59:35.202Z,1014.88
2022-12-03T06:00:40.543Z,1014.94
2022-12-03T06:01:35.142Z,1014.90
2022-12-03T06:02:35.213Z,1014.93
2022-12-03T06:03:35.218Z,1014.93
2022-12-03T06:04:35.049Z,1014.87
2022-12-03T06:05:35.027Z,1014.95
2022-12-03T06:06:34.988Z,1014.95
2022-12-03T06:07:35.026Z,1014.90
2022-12-03T06:08:34.928Z,1014.92
2022-12-03T06:09:34.901Z,1014.89
2022-12-03T06:10:34.869Z,1014.91
2022-12-03T06:11:34.834Z,1014.92
2022-12-03T06:12:34.804Z,1014.90
2022-12-03T06:13:34.775Z,1014.89
2022-12-03T06:14:34.745Z,1014.89
2022-12-03T06:15:40.305Z,1014.87
2022-12-03T06:16:34.833Z,1014.87
2022-12-03T06:17:34.654Z,1014.89
2022-12-03T06:18:34.618Z,1014.90
2022-12-03T06:19:34.592Z,1014.93
2022-12-03T06:20:34.559Z,1014.89
2022-12-03T06:21:34.530Z,1014.84
2022-12-03T06:22:34.501Z,1014.87
2022-12-03T06:23:34.482Z,1014.84
2022-12-03T06:24:34.441Z,1014.86
2022-12-03T06:25:34.404Z,1014.85
2022-12-03T06:26:34.375Z,1014.82
2022-12-03T06:27:34.370Z,1014.85
2022-12-03T06:28:34.312Z,1014.79
2022-12-03T06:29:34.286Z,1014.77
2022-12-03T06:30:34.291Z,1014.79
2022-12-03T06:31:34.302Z,1014.81
2022-12-03T06:32:34.191Z,1014.78
2022-12-03T06:33:34.159Z,1014.82
2022-12-03T06:34:34.130Z,1014.82
2022-12-03T06:35:34.103Z,1014.77
2022-12-03T06:36:34.068Z,1014.81
2022-12-03T06:37:34.039Z,1014.78
2022-12-03T06:38:34.008Z,1014.83
2022-12-03T06:39:33.996Z,1014.84
2022-12-03T06:40:33.945Z,1014.80
2022-12-03T06:41:33.916Z,1014.85
2022-12-03T06:42:33.884Z,1014.81
2022-12-03T06:43:33.853Z,1014.85
2022-12-03T06:44:33.820Z,1014.79
2022-12-03T06:45:33.792Z,1014.82
2022-12-03T06:46:33.870Z,1014.76
2022-12-03T06:47:33.738Z,1014.74
2022-12-03T06:48:33.698Z,1014.75
2022-12-03T06:49:33.668Z,1014.78
2022-12-03T06:50:33.637Z,1014.78
2022-12-03T06:51:33.607Z,1014.79
2022-12-03T06:52:33.581Z,1014.79
2022-12-03T06:53:33.552Z,1014.80
2022-12-03T06:54:33.516Z,1014.78
2022-12-03T06:55:33.505Z,1014.81
2022-12-03T06:56:37.814Z,1014.75
2022-12-03T06:57:33.428Z,1014.72
2022-12-03T06:58:33.394Z,1014.79
2022-12-03T06:59:33.362Z,1014.78
2022-12-03T07:00:33.331Z,1014.76
2022-12-03T07:01:33.377Z,1014.78
2022-12-03T07:02:33.368Z,1014.74
2022-12-03T07:03:33.244Z,1014.72
2022-12-03T07:04:33.208Z,1014.74
2022-12-03T07:05:33.179Z,1014.70
2022-12-03T07:06:33.147Z,1014.71
2022-12-03T07:07:33.179Z,1014.74
2022-12-03T07:08:33.088Z,1014.68
2022-12-03T07:09:33.056Z,1014.71
2022-12-03T07:10:33.024Z,1014.72
2022-12-03T07:11:33.012Z,1014.69
2022-12-03T07:12:32.973Z,1014.69
2022-12-03T07:13:32.936Z,1014.70
2022-12-03T07:14:32.903Z,1014.70
2022-12-03T07:15:32.873Z,1014.73
2022-12-03T07:16:33.069Z,1014.70
2022-12-03T07:17:32.811Z,1014.74
2022-12-03T07:18:32.780Z,1014.76
2022-12-03T07:19:33.314Z,1014.73
2022-12-03T07:20:32.715Z,1014.68
2022-12-03T07:21:32.690Z,1014.71
2022-12-03T07:22:32.658Z,1014.73
2022-12-03T07:23:32.662Z,1014.70
2022-12-03T07:24:32.591Z,1014.72
2022-12-03T07:25:32.565Z,1014.73
2022-12-03T07:26:32.555Z,1014.72
2022-12-03T07:27:32.538Z,1014.73
2022-12-03T07:28:32.526Z,1014.73
2022-12-03T07:29:32.440Z,1014.74
2022-12-03T07:30:32.411Z,1014.74
2022-12-03T07:31:32.473Z,1014.80
2022-12-03T07:32:32.345Z,1014.72
2022-12-03T07:33:32.318Z,1014.78
2022-12-03T07:34:32.287Z,1014.76
2022-12-03T07:35:32.258Z,1014.76
2022-12-03T07:36:32.231Z,1014.77
2022-12-03T07:37:32.196Z,1014.77
2022-12-03T07:38:32.195Z,1014.79
2022-12-03T07:39:32.135Z,1014.76
2022-12-03T07:40:32.155Z,1014.87
2022-12-03T07:41:32.100Z,1014.81
2022-12-03T07:42:32.039Z,1014.84
2022-12-03T07:43:32.028Z,1014.78
2022-12-03T07:44:31.979Z,1014.81
2022-12-03T07:45:31.951Z,1014.83
2022-12-03T07:46:32.000Z,1014.77
2022-12-03T07:47:31.887Z,1014.77
2022-12-03T07:48:31.856Z,1014.77
2022-12-03T07:49:31.828Z,1014.78
2022-12-03T07:50:31.793Z,1014.79
2022-12-03T07:51:32.474Z,1014.78
2022-12-03T07:52:31.732Z,1014.81
2022-12-03T07:53:31.705Z,1014.79
2022-12-03T07:54:31.671Z,1014.79
2022-12-03T07:55:31.641Z,1014.79
2022-12-03T07:56:31.607Z,1014.77
2022-12-03T07:57:31.582Z,1014.80
2022-12-03T07:58:31.555Z,1014.83
2022-12-03T07:59:31.622Z,1014.79
2022-12-03T08:00:31.530Z,1014.82
2022-12-03T08:01:31.500Z,1014.78
2022-12-03T08:02:31.538Z,1014.83
2022-12-03T08:03:31.398Z,1014.80
2022-12-03T08:04:31.363Z,1014.83
2022-12-03T08:05:31.336Z,1014.82
2022-12-03T08:06:31.300Z,1014.82
2022-12-03T08:07:31.279Z,1014.83
2022-12-03T08:08:31.240Z,1014.87
2022-12-03T08:09:31.210Z,1014.83
2022-12-03T08:10:31.181Z,1014.82
2022-12-03T08:11:31.149Z,1014.84
2022-12-03T08:12:31.118Z,1014.83
2022-12-03T08:13:31.088Z,1014.86
2022-12-03T08:14:31.055Z,1014.84
2022-12-03T08:15:35.366Z,1014.81
2022-12-03T08:16:31.077Z,1014.82
2022-12-03T08:17:30.967Z,1014.85
2022-12-03T08:18:30.931Z,1014.82
2022-12-03T08:19:30.902Z,1014.82
2022-12-03T08:20:30.871Z,1014.82
2022-12-03T08:21:30.888Z,1014.79
2022-12-03T08:22:30.812Z,1014.84
2022-12-03T08:23:30.778Z,1014.80
2022-12-03T08:24:30.746Z,1014.81
2022-12-03T08:25:30.720Z,1014.82
2022-12-03T08:26:30.683Z,1014.80
2022-12-03T08:27:30.657Z,1014.79
2022-12-03T08:28:30.625Z,1014.76
2022-12-03T08:29:30.712Z,1014.75
2022-12-03T08:30:30.562Z,1014.73
2022-12-03T08:31:33.496Z,1014.75
2022-12-03T08:32:30.500Z,1014.76
2022-12-03T08:33:30.471Z,1014.74
2022-12-03T08:34:30.467Z,1014.71
2022-12-03T08:35:30.413Z,1014.73
2022-12-03T08:36:30.377Z,1014.79
2022-12-03T08:37:30.349Z,1014.80
2022-12-03T08:38:30.354Z,1014.78
2022-12-03T08:39:30.286Z,1014.84
2022-12-03T08:40:30.257Z,1014.80
2022-12-03T08:41:30.225Z,1014.85
2022-12-03T08:42:30.195Z,1014.78
2022-12-03T08:43:30.160Z,1014.81
2022-12-03T08:44:30.128Z,1014.83
2022-12-03T08:45:30.194Z,1014.77
2022-12-03T08:46:30.129Z,1014.83
2022-12-03T08:47:30.059Z,1014.79
2022-12-03T08:48:30.006Z,1014.75
2022-12-03T08:49:29.975Z,1014.81
2022-12-03T08:50:29.944Z,1014.80
2022-12-03T08:51:29.914Z,1014.81
2022-12-03T08:52:29.881Z,1014.78
2022-12-03T08:53:29.866Z,1014.78
2022-12-03T08:54:29.820Z,1014.81
2022-12-03T08:55:29.790Z,1014.83
2022-12-03T08:56:29.757Z,1014.84
2022-12-03T08:57:29.732Z,1014.88
2022-12-03T08:58:29.696Z,1014.81
2022-12-03T08:59:29.672Z,1014.80
2022-12-03T09:00:29.636Z,1014.78
2022-12-03T09:01:29.821Z,1014.80
2022-12-03T09:02:29.577Z,1014.84
2022-12-03T09:03:29.560Z,1014.84
2022-12-03T09:04:29.640Z,1014.79
2022-12-03T09:05:29.481Z,1014.83
2022-12-03T09:06:29.450Z,1014.81
2022-12-03T09:07:29.454Z,1014.83
2022-12-03T09:08:29.387Z,1014.86
2022-12-03T09:09:29.361Z,1014.84
2022-12-03T09:10:29.324Z,1014.84
2022-12-03T09:11:29.294Z,1014.81
2022-12-03T09:12:29.298Z,1014.83
2022-12-03T09:13:29.377Z,1014.84
2022-12-03T09:14:29.200Z,1014.82
2022-12-03T09:15:29.174Z,1014.81
2022-12-03T09:16:29.180Z,1014.83
2022-12-03T09:17:29.113Z,1014.82
2022-12-03T09:18:29.081Z,1014.80
2022-12-03T09:19:29.065Z,1014.78
2022-12-03T09:20:29.075Z,1014.83
2022-12-03T09:21:29.087Z,1014.78
2022-12-03T09:22:28.968Z,1014.78
2022-12-03T09:23:28.922Z,1014.76
2022-12-03T09:24:28.899Z,1014.79
2022-12-03T09:25:28.867Z,1014.81
2022-12-03T09:26:28.835Z,1014.79
2022-12-03T09:27:28.821Z,1014.81
2022-12-03T09:28:28.775Z,1014.76
2022-12-03T09:29:28.739Z,1014.77
2022-12-03T09:30:28.714Z,1014.73
2022-12-03T09:31:28.717Z,1014.72
2022-12-03T09:32:28.723Z,1014.73
2022-12-03T09:33:28.620Z,1014.71
2022-12-03T09:34:28.586Z,1014.71
2022-12-03T09:35:28.572Z,1014.72
2022-12-03T09:36:28.524Z,1014.74
2022-12-03T09:37:28.494Z,1014.71
2022-12-03T09:38:28.464Z,1014.74
2022-12-03T09:39:28.432Z,1014.72
2022-12-03T09:40:28.432Z,1014.74
2022-12-03T09:41:28.368Z,1014.71
2022-12-03T09:42:28.339Z,1014.75
2022-12-03T09:43:49.505Z,1014.74
2022-12-03T09:44:28.278Z,1014.78
2022-12-03T09:45:28.251Z,1014.74
2022-12-03T09:46:28.310Z,1014.74
2022-12-03T09:47:28.183Z,1014.77
2022-12-03T09:48:28.154Z,1014.81
2022-12-03T09:49:28.121Z,1014.76
2022-12-03T09:50:28.092Z,1014.75
2022-12-03T09:51:28.078Z,1014.76
2022-12-03T09:52:28.028Z,1014.75
2022-12-03T09:53:27.997Z,1014.73
2022-12-03T09:54:27.972Z,1014.75
2022-12-03T09:55:27.936Z,1014.74
2022-12-03T09:56:27.908Z,1014.71
2022-12-03T09:57:27.872Z,1014.72
2022-12-03T09:58:33.127Z,1014.75
2022-12-03T09:59:27.837Z,1014.71
2022-12-03T10:00:27.783Z,1014.74
2022-12-03T10:01:30.376Z,1014.70
2022-12-03T10:02:27.723Z,1014.68
2022-12-03T10:03:30.009Z,1014.67
2022-12-03T10:04:27.760Z,1014.65
2022-12-03T10:05:27.629Z,1014.67
2022-12-03T10:06:27.600Z,1014.59
2022-12-03T10:07:27.711Z,1014.61
2022-12-03T10:08:31.973Z,1014.61
2022-12-03T10:09:27.508Z,1014.62
2022-12-03T10:10:27.482Z,1014.64
2022-12-03T10:11:27.443Z,1014.60
2022-12-03T10:12:27.415Z,1014.58
2022-12-03T10:13:27.390Z,1014.56
2022-12-03T10:14:27.356Z,1014.56
2022-12-03T10:15:27.319Z,1014.56
2022-12-03T10:16:27.392Z,1014.55
2022-12-03T10:17:27.258Z,1014.57
2022-12-03T10:18:30.498Z,1014.55
2022-12-03T10:19:27.198Z,1014.50
2022-12-03T10:20:27.166Z,1014.50
2022-12-03T10:21:27.135Z,1014.51
2022-12-03T10:22:27.112Z,1014.53
2022-12-03T10:23:27.092Z,1014.48
2022-12-03T10:24:27.045Z,1014.46
2022-12-03T10:25:27.013Z,1014.52
2022-12-03T10:26:26.986Z,1014.50
2022-12-03T10:27:26.947Z,1014.47
2022-12-03T10:28:26.918Z,1014.50
2022-12-03T10:29:32.892Z,1014.44
2022-12-03T10:30:26.939Z,1014.41
2022-12-03T10:31:26.860Z,1014.41
2022-12-03T10:32:26.800Z,1014.38
2022-12-03T10:33:26.769Z,1014.39
2022-12-03T10:34:26.741Z,1014.40
2022-12-03T10:35:26.702Z,1014.31
2022-12-03T10:36:26.678Z,1014.32
2022-12-03T10:37:26.641Z,1014.32
2022-12-03T10:38:26.614Z,1014.31
2022-12-03T10:39:26.596Z,1014.26
2022-12-03T10:40:26.555Z,1014.25
2022-12-03T10:41:26.533Z,1014.26
2022-12-03T10:42:26.499Z,1014.25
2022-12-03T10:43:26.456Z,1014.27
2022-12-03T10:44:26.435Z,1014.27
2022-12-03T10:45:26.395Z,1014.25
2022-12-03T10:46:26.516Z,1014.20
2022-12-03T10:47:26.520Z,1014.26
2022-12-03T10:48:26.318Z,1014.25
2022-12-03T10:49:26.274Z,1014.24
2022-12-03T10:50:26.244Z,1014.26
2022-12-03T10:51:26.211Z,1014.22
2022-12-03T10:52:26.337Z,1014.24
2022-12-03T10:53:26.154Z,1014.21
2022-12-03T10:54:26.126Z,1014.21
2022-12-03T10:55:26.105Z,1014.17
2022-12-03T10:56:26.059Z,1014.20
2022-12-03T10:57:26.026Z,1014.18
2022-12-03T10:58:25.997Z,1014.17
2022-12-03T10:59:25.964Z,1014.17
2022-12-03T11:00:25.936Z,1014.16
2022-12-03T11:01:26.015Z,1014.12
2022-12-03T11:02:25.880Z,1014.11
2022-12-03T11:03:25.975Z,1014.11
2022-12-03T11:04:25.811Z,1014.13
2022-12-03T11:05:25.779Z,1014.11
2022-12-03T11:06:25.750Z,1014.08
2022-12-03T11:07:25.748Z,1014.05
2022-12-03T11:08:25.688Z,1014.09
2022-12-03T11:09:25.655Z,1014.08
2022-12-03T11:10:25.634Z,1014.05
2022-12-03T11:11:25.611Z,1014.00
2022-12-03T11:12:25.565Z,1014.02
2022-12-03T11:13:25.533Z,1013.99
2022-12-03T11:14:25.504Z,1014.01
2022-12-03T11:15:25.468Z,1014.00
2022-12-03T11:16:25.482Z,1014.02
2022-12-03T11:17:25.418Z,1013.96
2022-12-03T11:18:25.380Z,1013.95
2022-12-03T11:19:25.348Z,1013.96
2022-12-03T11:20:25.324Z,1013.97
2022-12-03T11:21:25.284Z,1013.91
2022-12-03T11:22:25.257Z,1013.91
2022-12-03T11:23:25.225Z,1013.90
2022-12-03T11:24:25.194Z,1013.90
2022-12-03T11:25:25.163Z,1013.95
2022-12-03T11:26:25.137Z,1013.92
2022-12-03T11:27:25.117Z,1013.90
2022-12-03T11:28:25.083Z,1013.85
2022-12-03T11:29:25.047Z,1013.90
2022-12-03T11:30:25.013Z,1013.89
2022-12-03T11:31:25.039Z,1013.83
2022-12-03T11:32:28.048Z,1013.79
2022-12-03T11:33:24.915Z,1013.83
2022-12-03T11:34:24.889Z,1013.77
2022-12-03T11:35:24.858Z,1013.77
2022-12-03T11:36:47.646Z,1013.72
2022-12-03T11:37:24.815Z,1013.74
2022-12-03T11:38:24.763Z,1013.76
2022-12-03T11:39:24.727Z,1013.73
2022-12-03T11:40:24.703Z,1013.68
2022-12-03T11:41:24.669Z,1013.75
2022-12-03T11:42:24.640Z,1013.66
2022-12-03T11:43:24.634Z,1013.70
2022-12-03T11:44:24.582Z,1013.62
2022-12-03T11:45:24.547Z,1013.64
2022-12-03T11:46:24.575Z,1013.62
2022-12-03T11:47:24.484Z,1013.66
2022-12-03T11:48:24.467Z,1013.62
2022-12-03T11:49:24.422Z,1013.62
2022-12-03T11:50:24.394Z,1013.63
2022-12-03T11:51:24.365Z,1013.61
2022-12-03T11:52:24.331Z,1013.60
2022-12-03T11:53:24.299Z,1013.65
2022-12-03T11:54:24.271Z,1013.61
2022-12-03T11:55:24.239Z,1013.61
2022-12-03T11:56:24.210Z,1013.59
2022-12-03T11:57:24.175Z,1013.62
2022-12-03T11:58:24.147Z,1013.66
2022-12-03T11:59:24.132Z,1013.63
2022-12-03T12:00:24.116Z,1013.65
2022-12-03T12:01:24.057Z,1013.62
2022-12-03T12:02:24.041Z,1013.60
2022-12-03T12:03:24.246Z,1013.57
2022-12-03T12:04:24.046Z,1013.57
2022-12-03T12:05:23.932Z,1013.56